Lolani — WDF3586 — position and weather

sailwx.info

Track history (hours):
 
Tides and Currents Weather Stations Pressure Air Temp Water Temp Dewpoint Dewpoint Depression Visibility Wind Speed Wind Dir Waves Ship Positions

Lolani

Owner: Scripps, Edward W, Bellevue, WA. More information available from US FCC via Universal Licensing System and Coast Guard Vessel Documentation Center.

Last reported at 2016-May-24 20:33 UTC. Time now 2016-May-26 04:43 UTC.
Position N 51°08' W 127°16'.

Type: Sailing vessel. MMSI: 316026565.

Date/timePositionNaut miles runAvg speedWind from/ knotsBaromVisibWave heightAir tempDewpointWater temp
2016-May-24 20:33N 51°08' W 127°16'6 5.7
2016-May-24 19:31N 51°10' W 127°25'2 0.1
2016-May-24 04:22N 51°10' W 127°28'0 0.0
2016-May-23 23:04N 51°10' W 127°28'0 0.0
2016-May-23 22:28N 51°10' W 127°28'0 0.0
2016-May-23 19:28N 51°10' W 127°28'2 2.1
2016-May-23 18:33N 51°08' W 127°27'3 2.7
2016-May-23 17:32N 51°06' W 127°31'7 7.2
2016-May-23 16:33N 51°02' W 127°21'3 2.3
2016-May-23 15:22N 51°02' W 127°17'0 0.0
2016-May-23 14:22N 51°02' W 127°17'0 0.0
2016-May-23 12:16N 51°02' W 127°17'0 0.0
2016-May-23 11:22N 51°02' W 127°17'0 0.0
2016-May-23 10:16N 51°02' W 127°17'0 0.0
2016-May-23 09:15N 51°02' W 127°17'0 0.0
2016-May-23 07:22N 51°02' W 127°17'0 0.0
2016-May-23 06:25N 51°02' W 127°17'0 0.0
2016-May-23 02:28N 51°02' W 127°17'0 0.0
2016-May-23 01:28N 51°02' W 127°17'0 0.0
2016-May-22 23:28N 51°02' W 127°17'0 0.0
2016-May-22 22:28N 51°02' W 127°17'0 0.0
2016-May-22 21:31N 51°02' W 127°17'0 0.0
2016-May-22 20:31N 51°02' W 127°17'0 0.0
2016-May-22 17:31N 51°02' W 127°17'0 0.0
2016-May-22 16:28N 51°02' W 127°17'0 0.0
2016-May-22 14:22N 51°02' W 127°17'0 0.0
2016-May-22 13:28N 51°02' W 127°17'0 0.0
2016-May-22 12:28N 51°02' W 127°17'0 0.0
2016-May-22 11:34N 51°02' W 127°17'0 0.0
2016-May-22 10:34N 51°02' W 127°17'0 0.0
2016-May-22 09:28N 51°02' W 127°17'0 0.0
2016-May-22 08:04N 51°02' W 127°17'0 0.0
2016-May-22 07:28N 51°02' W 127°17'0 0.0
2016-May-22 05:28N 51°02' W 127°17'0 0.0
2016-May-22 04:22N 51°02' W 127°17'0 0.0
2016-May-22 03:22N 51°02' W 127°17'0 0.0
2016-May-22 02:28N 51°02' W 127°17'0 0.0
2016-May-22 01:28N 51°02' W 127°17'0 0.0
2016-May-22 00:22N 51°02' W 127°17'0 0.0
2016-May-21 23:28N 51°02' W 127°17'0 0.0
2016-May-21 20:31N 51°02' W 127°17'0 0.0
2016-May-21 19:31N 51°02' W 127°17'0 0.0
2016-May-21 17:25N 51°02' W 127°17'0 0.0
2016-May-21 16:25N 51°02' W 127°17'0 0.0
2016-May-21 15:31N 51°02' W 127°17'0 0.0
2016-May-21 14:31N 51°02' W 127°17'0 0.0
2016-May-21 13:31N 51°02' W 127°17'0 0.0
2016-May-21 12:25N 51°02' W 127°17'0 0.0
2016-May-21 11:31N 51°02' W 127°17'0 0.0
2016-May-21 10:31N 51°02' W 127°17'0 0.0
2016-May-21 09:31N 51°02' W 127°17'0 0.0
2016-May-21 08:31N 51°02' W 127°17'0 0.0
2016-May-21 07:31N 51°02' W 127°17'0 0.0
2016-May-21 06:19N 51°02' W 127°17'0 0.0
2016-May-21 05:25N 51°02' W 127°17'0 0.0
2016-May-21 04:31N 51°02' W 127°17'0 0.0
2016-May-21 03:31N 51°02' W 127°17'0 0.0
2016-May-21 02:19N 51°02' W 127°17'0 0.0
2016-May-21 01:13N 51°02' W 127°17'0 0.0
2016-May-21 00:31N 51°02' W 127°17'0 0.0
2016-May-20 23:31N 51°02' W 127°17'0 0.0
2016-May-20 22:25N 51°02' W 127°17'0 0.0
2016-May-20 21:31N 51°02' W 127°17'0 0.0
2016-May-20 20:31N 51°02' W 127°17'0 0.0
2016-May-20 19:31N 51°02' W 127°17'0 0.5
2016-May-20 18:33N 51°02' W 127°18'7 6.7
2016-May-20 17:33N 51°05' W 127°27'3 3.4
2016-May-20 16:31N 51°03' W 127°31'1 1.1
2016-May-20 15:30N 51°03' W 127°30'0 0.0
2016-May-20 14:30N 51°03' W 127°30'0 0.0
2016-May-20 07:24N 51°03' W 127°30'0 0.0
2016-May-20 06:24N 51°03' W 127°30'0 0.0
2016-May-20 03:06N 51°03' W 127°30'0 0.0
2016-May-20 02:06N 51°03' W 127°30'0 0.0
2016-May-20 01:12N 51°03' W 127°30'0 0.0
2016-May-20 00:30N 51°03' W 127°30'0 0.0
2016-May-19 22:12N 51°03' W 127°30'0 0.2
2016-May-19 20:28N 51°03' W 127°31'5 5.1
2016-May-19 19:33N 50°59' W 127°32'5 5.2
2016-May-19 18:33N 50°54' W 127°27'5 4.9
2016-May-19 17:33N 50°50' W 127°23'  
Track history (hours):
 
Tides and Currents Weather Stations Pressure Air Temp Water Temp Dewpoint Dewpoint Depression Visibility Wind Speed Wind Dir Waves Ship Positions

Lolani

Owner: Scripps, Edward W, Bellevue, WA. More information available from US FCC via Universal Licensing System and Coast Guard Vessel Documentation Center.

Last reported at 2016-May-24 20:33 UTC. Time now 2016-May-26 04:43 UTC.
Position N 51°08' W 127°16'.

Type: Sailing vessel. MMSI: 316026565.

Date/timePositionNaut miles runAvg speedWind from/ knotsBaromVisibWave heightAir tempDewpointWater temp
2016-May-24 20:33N 51°08' W 127°16'6 5.7
2016-May-24 19:31N 51°10' W 127°25'2 0.1
2016-May-24 04:22N 51°10' W 127°28'0 0.0
2016-May-23 23:04N 51°10' W 127°28'0 0.0
2016-May-23 22:28N 51°10' W 127°28'0 0.0
2016-May-23 19:28N 51°10' W 127°28'2 2.1
2016-May-23 18:33N 51°08' W 127°27'3 2.7
2016-May-23 17:32N 51°06' W 127°31'7 7.2
2016-May-23 16:33N 51°02' W 127°21'3 2.3
2016-May-23 15:22N 51°02' W 127°17'0 0.0
2016-May-23 14:22N 51°02' W 127°17'0 0.0
2016-May-23 12:16N 51°02' W 127°17'0 0.0
2016-May-23 11:22N 51°02' W 127°17'0 0.0
2016-May-23 10:16N 51°02' W 127°17'0 0.0
2016-May-23 09:15N 51°02' W 127°17'0 0.0
2016-May-23 07:22N 51°02' W 127°17'0 0.0
2016-May-23 06:25N 51°02' W 127°17'0 0.0
2016-May-23 02:28N 51°02' W 127°17'0 0.0
2016-May-23 01:28N 51°02' W 127°17'0 0.0
2016-May-22 23:28N 51°02' W 127°17'0 0.0
2016-May-22 22:28N 51°02' W 127°17'0 0.0
2016-May-22 21:31N 51°02' W 127°17'0 0.0
2016-May-22 20:31N 51°02' W 127°17'0 0.0
2016-May-22 17:31N 51°02' W 127°17'0 0.0
2016-May-22 16:28N 51°02' W 127°17'0 0.0
2016-May-22 14:22N 51°02' W 127°17'0 0.0
2016-May-22 13:28N 51°02' W 127°17'0 0.0
2016-May-22 12:28N 51°02' W 127°17'0 0.0
2016-May-22 11:34N 51°02' W 127°17'0 0.0
2016-May-22 10:34N 51°02' W 127°17'0 0.0
2016-May-22 09:28N 51°02' W 127°17'0 0.0
2016-May-22 08:04N 51°02' W 127°17'0 0.0
2016-May-22 07:28N 51°02' W 127°17'0 0.0
2016-May-22 05:28N 51°02' W 127°17'0 0.0
2016-May-22 04:22N 51°02' W 127°17'0 0.0
2016-May-22 03:22N 51°02' W 127°17'0 0.0
2016-May-22 02:28N 51°02' W 127°17'0 0.0
2016-May-22 01:28N 51°02' W 127°17'0 0.0
2016-May-22 00:22N 51°02' W 127°17'0 0.0
2016-May-21 23:28N 51°02' W 127°17'0 0.0
2016-May-21 20:31N 51°02' W 127°17'0 0.0
2016-May-21 19:31N 51°02' W 127°17'0 0.0
2016-May-21 17:25N 51°02' W 127°17'0 0.0
2016-May-21 16:25N 51°02' W 127°17'0 0.0
2016-May-21 15:31N 51°02' W 127°17'0 0.0
2016-May-21 14:31N 51°02' W 127°17'0 0.0
2016-May-21 13:31N 51°02' W 127°17'0 0.0
2016-May-21 12:25N 51°02' W 127°17'0 0.0
2016-May-21 11:31N 51°02' W 127°17'0 0.0
2016-May-21 10:31N 51°02' W 127°17'0 0.0
2016-May-21 09:31N 51°02' W 127°17'0 0.0
2016-May-21 08:31N 51°02' W 127°17'0 0.0
2016-May-21 07:31N 51°02' W 127°17'0 0.0
2016-May-21 06:19N 51°02' W 127°17'0 0.0
2016-May-21 05:25N 51°02' W 127°17'0 0.0
2016-May-21 04:31N 51°02' W 127°17'0 0.0
2016-May-21 03:31N 51°02' W 127°17'0 0.0
2016-May-21 02:19N 51°02' W 127°17'0 0.0
2016-May-21 01:13N 51°02' W 127°17'0 0.0
2016-May-21 00:31N 51°02' W 127°17'0 0.0
2016-May-20 23:31N 51°02' W 127°17'0 0.0
2016-May-20 22:25N 51°02' W 127°17'0 0.0
2016-May-20 21:31N 51°02' W 127°17'0 0.0
2016-May-20 20:31N 51°02' W 127°17'0 0.0
2016-May-20 19:31N 51°02' W 127°17'0 0.5
2016-May-20 18:33N 51°02' W 127°18'7 6.7
2016-May-20 17:33N 51°05' W 127°27'3 3.4
2016-May-20 16:31N 51°03' W 127°31'1 1.1
2016-May-20 15:30N 51°03' W 127°30'0 0.0
2016-May-20 14:30N 51°03' W 127°30'0 0.0
2016-May-20 07:24N 51°03' W 127°30'0 0.0
2016-May-20 06:24N 51°03' W 127°30'0 0.0
2016-May-20 03:06N 51°03' W 127°30'0 0.0
2016-May-20 02:06N 51°03' W 127°30'0 0.0
2016-May-20 01:12N 51°03' W 127°30'0 0.0
2016-May-20 00:30N 51°03' W 127°30'0 0.0
2016-May-19 22:12N 51°03' W 127°30'0 0.2
2016-May-19 20:28N 51°03' W 127°31'5 5.1
2016-May-19 19:33N 50°59' W 127°32'5 5.2
2016-May-19 18:33N 50°54' W 127°27'5 4.9
2016-May-19 17:33N 50°50' W 127°23'  

Dump ship's entire track history